Terminal Aerodrome Forecast
Issued by NWS Charleston, WV

Home | Current Version | Previous Version | Text Only | Print | Product List | Glossary On
Versions: 1 2 3 4 5 6 7 8 9 10 11 12 13 14 15 16 17 18 19 20 21 22 23 24 25 26 27 28 29 30 31 32 33 34
000
FTUS41 KRLX 302300
TAFCRW
TAF
KCRW 302339Z 3100/3124 VRB03KT 6SM SHRA VCTS BKN050CB
      TEMPO 3100/3101 VRB10G20KT 4SM -TSRA OVC040CB
     FM310200 00000KT P6SM BKN040
     FM310400 00000KT 4SM BR SCT050
     FM310600 00000KT 2SM BR SCT040
     FM310900 00000KT 1/4SM FG VV001
     FM311300 00000KT 4SM BR BKN002=

USA.gov is the U.S. government's official web portal to all federal, state and local government web resources and services.